sensor_id;sensor_type;location;lat;lon;timestamp;pressure;altitude;pressure_sealevel;temperature;humidity
49759;BME280;35654;46.080;11.118;2023-01-29T00:02:04;100159.16;;;0.96;68.36
49759;BME280;35654;46.080;11.118;2023-01-29T00:04:31;100156.06;;;0.92;68.46
49759;BME280;35654;46.080;11.118;2023-01-29T00:06:57;100154.19;;;0.93;68.22
49759;BME280;35654;46.080;11.118;2023-01-29T00:09:25;100161.03;;;0.95;68.27
49759;BME280;35654;46.080;11.118;2023-01-29T00:11:51;100158.56;;;0.94;68.56
49759;BME280;35654;46.080;11.118;2023-01-29T00:14:18;100160.22;;;0.95;68.80
49759;BME280;35654;46.080;11.118;2023-01-29T00:16:45;100168.09;;;0.96;68.83
49759;BME280;35654;46.080;11.118;2023-01-29T00:19:11;100173.47;;;0.96;68.88
49759;BME280;35654;46.080;11.118;2023-01-29T00:21:38;100176.81;;;0.92;68.98
49759;BME280;35654;46.080;11.118;2023-01-29T00:24:04;100173.28;;;0.91;69.24
49759;BME280;35654;46.080;11.118;2023-01-29T00:26:31;100169.59;;;0.86;69.21
49759;BME280;35654;46.080;11.118;2023-01-29T00:28:58;100167.13;;;0.78;69.65
49759;BME280;35654;46.080;11.118;2023-01-29T00:31:25;100170.19;;;0.81;69.40
49759;BME280;35654;46.080;11.118;2023-01-29T00:33:52;100166.88;;;0.86;69.35
49759;BME280;35654;46.080;11.118;2023-01-29T00:36:20;100162.53;;;0.85;69.03
49759;BME280;35654;46.080;11.118;2023-01-29T00:38:53;100167.09;;;0.84;69.12
49759;BME280;35654;46.080;11.118;2023-01-29T00:41:31;100169.78;;;0.84;69.09
49759;BME280;35654;46.080;11.118;2023-01-29T00:44:17;100169.41;;;0.81;69.39
49759;BME280;35654;46.080;11.118;2023-01-29T00:47:03;100171.69;;;0.77;69.74
49759;BME280;35654;46.080;11.118;2023-01-29T00:49:30;100173.97;;;0.67;69.74
49759;BME280;35654;46.080;11.118;2023-01-29T00:51:56;100171.50;;;0.59;70.71
49759;BME280;35654;46.080;11.118;2023-01-29T00:54:42;100165.09;;;0.53;70.64
49759;BME280;35654;46.080;11.118;2023-01-29T00:57:08;100162.81;;;0.50;70.78
49759;BME280;35654;46.080;11.118;2023-01-29T00:59:35;100165.75;;;0.49;70.87
49759;BME280;35654;46.080;11.118;2023-01-29T01:02:01;100164.47;;;0.51;70.96
49759;BME280;35654;46.080;11.118;2023-01-29T01:04:47;100172.97;;;0.48;70.90
49759;BME280;35654;46.080;11.118;2023-01-29T01:07:13;100166.75;;;0.48;70.99
49759;BME280;35654;46.080;11.118;2023-01-29T01:09:40;100169.06;;;0.38;71.06
49759;BME280;35654;46.080;11.118;2023-01-29T01:12:27;100165.75;;;0.42;71.72
49759;BME280;35654;46.080;11.118;2023-01-29T01:14:53;100175.69;;;0.48;71.30
49759;BME280;35654;46.080;11.118;2023-01-29T01:17:20;100182.94;;;0.48;71.08
49759;BME280;35654;46.080;11.118;2023-01-29T01:19:47;100186.50;;;0.42;71.28
49759;BME280;35654;46.080;11.118;2023-01-29T01:22:12;100188.53;;;0.40;70.75
49759;BME280;35654;46.080;11.118;2023-01-29T01:24:39;100179.63;;;0.39;70.34
49759;BME280;35654;46.080;11.118;2023-01-29T01:27:06;100187.09;;;0.37;70.65
49759;BME280;35654;46.080;11.118;2023-01-29T01:29:32;100182.97;;;0.22;70.82
49759;BME280;35654;46.080;11.118;2023-01-29T01:31:59;100188.56;;;0.00;71.91
49759;BME280;35654;46.080;11.118;2023-01-29T01:34:26;100195.81;;;0.07;72.17
49759;BME280;35654;46.080;11.118;2023-01-29T01:36:54;100199.34;;;0.07;71.89
49759;BME280;35654;46.080;11.118;2023-01-29T01:39:24;100197.91;;;0.11;71.95
49759;BME280;35654;46.080;11.118;2023-01-29T01:41:51;100192.91;;;0.15;72.00
49759;BME280;35654;46.080;11.118;2023-01-29T01:47:43;100197.06;;;0.17;71.94
49759;BME280;35654;46.080;11.118;2023-01-29T01:50:28;100194.16;;;0.19;72.11
49759;BME280;35654;46.080;11.118;2023-01-29T01:53:00;100197.88;;;0.18;71.87
49759;BME280;35654;46.080;11.118;2023-01-29T01:55:30;100202.84;;;0.21;72.15
49759;BME280;35654;46.080;11.118;2023-01-29T01:58:11;100206.56;;;0.20;71.59
49759;BME280;35654;46.080;11.118;2023-01-29T02:00:40;100204.09;;;0.18;71.92
49759;BME280;35654;46.080;11.118;2023-01-29T02:03:08;100205.34;;;0.16;71.66
49759;BME280;35654;46.080;11.118;2023-01-29T02:05:57;100198.94;;;0.10;71.95
49759;BME280;35654;46.080;11.118;2023-01-29T02:09:01;100202.44;;;-0.03;72.07
49759;BME280;35654;46.080;11.118;2023-01-29T02:11:51;100205.31;;;-0.11;72.69
49759;BME280;35654;46.080;11.118;2023-01-29T02:14:19;100209.06;;;-0.18;72.58
49759;BME280;35654;46.080;11.118;2023-01-29T02:16:46;100200.59;;;-0.09;72.49
49759;BME280;35654;46.080;11.118;2023-01-29T02:28:11;100203.69;;;-0.12;72.43
49759;BME280;35654;46.080;11.118;2023-01-29T02:31:11;100206.13;;;-0.17;72.58
49759;BME280;35654;46.080;11.118;2023-01-29T02:36:50;100213.59;;;-0.19;73.09
49759;BME280;35654;46.080;11.118;2023-01-29T02:42:34;100223.75;;;-0.21;73.48
49759;BME280;35654;46.080;11.118;2023-01-29T02:45:22;100231.00;;;-0.21;73.41
49759;BME280;35654;46.080;11.118;2023-01-29T02:47:59;100230.38;;;-0.23;73.46
49759;BME280;35654;46.080;11.118;2023-01-29T02:50:36;100233.06;;;-0.23;73.45
49759;BME280;35654;46.080;11.118;2023-01-29T02:56:00;100239.47;;;-0.24;72.67
49759;BME280;35654;46.080;11.118;2023-01-29T02:58:41;100247.53;;;-0.24;73.01
49759;BME280;35654;46.080;11.118;2023-01-29T03:01:30;100254.78;;;-0.25;72.18
49759;BME280;35654;46.080;11.118;2023-01-29T03:04:16;100255.63;;;-0.24;72.34
49759;BME280;35654;46.080;11.118;2023-01-29T03:06:56;100256.84;;;-0.27;72.68
49759;BME280;35654;46.080;11.118;2023-01-29T03:09:31;100255.38;;;-0.36;72.64
49759;BME280;35654;46.080;11.118;2023-01-29T03:12:09;100256.22;;;-0.35;72.75
49759;BME280;35654;46.080;11.118;2023-01-29T03:14:54;100255.78;;;-0.45;73.07
49759;BME280;35654;46.080;11.118;2023-01-29T03:18:03;100256.00;;;-0.40;73.35
49759;BME280;35654;46.080;11.118;2023-01-29T03:20:36;100260.56;;;-0.34;73.02
49759;BME280;35654;46.080;11.118;2023-01-29T03:23:09;100260.16;;;-0.31;72.83
49759;BME280;35654;46.080;11.118;2023-01-29T03:25:37;100257.66;;;-0.33;73.25
49759;BME280;35654;46.080;11.118;2023-01-29T03:28:25;100257.66;;;-0.33;73.29
49759;BME280;35654;46.080;11.118;2023-01-29T03:31:12;100262.84;;;-0.31;72.99
49759;BME280;35654;46.080;11.118;2023-01-29T03:34:27;100265.56;;;-0.31;72.88
49759;BME280;35654;46.080;11.118;2023-01-29T03:39:54;100266.53;;;-0.39;72.39
49759;BME280;35654;46.080;11.118;2023-01-29T03:45:49;100271.69;;;-0.44;72.25
49759;BME280;35654;46.080;11.118;2023-01-29T03:52:02;100273.34;;;-0.56;72.60
49759;BME280;35654;46.080;11.118;2023-01-29T04:03:25;100276.53;;;-0.80;72.90
49759;BME280;35654;46.080;11.118;2023-01-29T04:06:19;100283.34;;;-0.78;72.94
49759;BME280;35654;46.080;11.118;2023-01-29T04:09:18;100283.16;;;-0.76;72.77
49759;BME280;35654;46.080;11.118;2023-01-29T04:11:54;100284.63;;;-0.74;72.79
49759;BME280;35654;46.080;11.118;2023-01-29T04:14:26;100282.28;;;-0.83;72.51
49759;BME280;35654;46.080;11.118;2023-01-29T04:16:56;100274.72;;;-0.73;72.89
49759;BME280;35654;46.080;11.118;2023-01-29T04:19:27;100272.88;;;-0.66;72.54
49759;BME280;35654;46.080;11.118;2023-01-29T04:22:03;100270.38;;;-0.68;72.35
49759;BME280;35654;46.080;11.118;2023-01-29T04:24:31;100269.34;;;-0.67;72.28
49759;BME280;35654;46.080;11.118;2023-01-29T04:32:58;100271.34;;;-0.82;72.92
49759;BME280;35654;46.080;11.118;2023-01-29T04:41:33;100277.03;;;-1.04;74.75
49759;BME280;35654;46.080;11.118;2023-01-29T04:44:17;100273.50;;;-1.05;74.92
49759;BME280;35654;46.080;11.118;2023-01-29T04:49:46;100278.59;;;-1.17;74.96
49759;BME280;35654;46.080;11.118;2023-01-29T04:52:43;100270.75;;;-1.18;74.94
49759;BME280;35654;46.080;11.118;2023-01-29T04:55:21;100267.66;;;-1.15;74.82
49759;BME280;35654;46.080;11.118;2023-01-29T04:58:21;100271.59;;;-1.11;74.15
49759;BME280;35654;46.080;11.118;2023-01-29T05:00:53;100271.38;;;-1.16;74.56
49759;BME280;35654;46.080;11.118;2023-01-29T05:03:23;100269.56;;;-1.09;74.20
49759;BME280;35654;46.080;11.118;2023-01-29T05:05:53;100267.94;;;-1.03;74.64
49759;BME280;35654;46.080;11.118;2023-01-29T05:08:23;100272.50;;;-0.97;73.53
49759;BME280;35654;46.080;11.118;2023-01-29T05:10:52;100271.09;;;-0.93;72.66
49759;BME280;35654;46.080;11.118;2023-01-29T05:13:20;100266.88;;;-1.02;72.60
49759;BME280;35654;46.080;11.118;2023-01-29T05:16:17;100274.50;;;-1.12;72.98
49759;BME280;35654;46.080;11.118;2023-01-29T05:18:43;100273.22;;;-1.17;72.71
49759;BME280;35654;46.080;11.118;2023-01-29T05:21:11;100287.31;;;-1.14;72.82
49759;BME280;35654;46.080;11.118;2023-01-29T05:23:37;100283.56;;;-1.13;72.58
49759;BME280;35654;46.080;11.118;2023-01-29T05:26:04;100290.41;;;-1.11;72.75
49759;BME280;35654;46.080;11.118;2023-01-29T05:28:31;100287.53;;;-1.09;72.94
49759;BME280;35654;46.080;11.118;2023-01-29T05:30:58;100286.31;;;-1.07;73.14
49759;BME280;35654;46.080;11.118;2023-01-29T05:33:28;100292.69;;;-1.08;72.86
49759;BME280;35654;46.080;11.118;2023-01-29T05:35:57;100285.03;;;-1.11;73.08
49759;BME280;35654;46.080;11.118;2023-01-29T05:38:25;100288.31;;;-1.15;73.13
49759;BME280;35654;46.080;11.118;2023-01-29T05:40:52;100290.94;;;-1.22;73.25
49759;BME280;35654;46.080;11.118;2023-01-29T05:43:23;100288.41;;;-1.30;74.22
49759;BME280;35654;46.080;11.118;2023-01-29T05:45:57;100293.63;;;-1.22;73.93
49759;BME280;35654;46.080;11.118;2023-01-29T05:48:25;100292.81;;;-1.23;74.06
49759;BME280;35654;46.080;11.118;2023-01-29T05:50:59;100300.63;;;-1.28;73.40
49759;BME280;35654;46.080;11.118;2023-01-29T05:53:28;100305.31;;;-1.36;74.24
49759;BME280;35654;46.080;11.118;2023-01-29T05:55:55;100298.63;;;-1.47;74.86
49759;BME280;35654;46.080;11.118;2023-01-29T05:58:24;100298.84;;;-1.48;74.72
49759;BME280;35654;46.080;11.118;2023-01-29T06:00:50;100304.69;;;-1.38;74.80
49759;BME280;35654;46.080;11.118;2023-01-29T06:03:17;100304.75;;;-1.32;74.08
49759;BME280;35654;46.080;11.118;2023-01-29T06:05:44;100307.38;;;-1.38;74.36
49759;BME280;35654;46.080;11.118;2023-01-29T06:08:10;100305.06;;;-1.41;74.96
49759;BME280;35654;46.080;11.118;2023-01-29T06:10:37;100299.94;;;-1.36;74.79
49759;BME280;35654;46.080;11.118;2023-01-29T06:13:04;100305.75;;;-1.33;74.22
49759;BME280;35654;46.080;11.118;2023-01-29T06:15:32;100308.06;;;-1.30;74.68
49759;BME280;35654;46.080;11.118;2023-01-29T06:17:58;100298.16;;;-1.29;74.78
49759;BME280;35654;46.080;11.118;2023-01-29T06:20:25;100302.31;;;-1.27;74.55
49759;BME280;35654;46.080;11.118;2023-01-29T06:22:52;100303.94;;;-1.26;74.31
49759;BME280;35654;46.080;11.118;2023-01-29T06:25:18;100313.06;;;-1.27;74.95
49759;BME280;35654;46.080;11.118;2023-01-29T06:27:45;100321.09;;;-1.27;74.38
49759;BME280;35654;46.080;11.118;2023-01-29T06:30:11;100323.56;;;-1.32;74.54
49759;BME280;35654;46.080;11.118;2023-01-29T06:32:39;100329.72;;;-1.31;75.23
49759;BME280;35654;46.080;11.118;2023-01-29T06:35:06;100333.25;;;-1.31;74.96
49759;BME280;35654;46.080;11.118;2023-01-29T06:37:33;100341.47;;;-1.39;75.46
49759;BME280;35654;46.080;11.118;2023-01-29T06:39:59;100349.72;;;-1.40;75.68
49759;BME280;35654;46.080;11.118;2023-01-29T06:42:26;100356.94;;;-1.41;75.87
49759;BME280;35654;46.080;11.118;2023-01-29T06:44:54;100364.38;;;-1.43;75.48
49759;BME280;35654;46.080;11.118;2023-01-29T06:47:22;100362.22;;;-1.54;75.71
49759;BME280;35654;46.080;11.118;2023-01-29T06:49:49;100364.53;;;-1.51;76.01
49759;BME280;35654;46.080;11.118;2023-01-29T06:52:16;100358.81;;;-1.41;75.74
49759;BME280;35654;46.080;11.118;2023-01-29T06:54:43;100370.84;;;-1.37;75.25
49759;BME280;35654;46.080;11.118;2023-01-29T06:57:09;100375.81;;;-1.34;75.25
49759;BME280;35654;46.080;11.118;2023-01-29T06:59:35;100372.72;;;-1.31;74.95
49759;BME280;35654;46.080;11.118;2023-01-29T07:02:02;100383.28;;;-1.30;74.61
49759;BME280;35654;46.080;11.118;2023-01-29T07:04:27;100387.66;;;-1.29;74.63
49759;BME280;35654;46.080;11.118;2023-01-29T07:06:54;100391.97;;;-1.28;74.91
49759;BME280;35654;46.080;11.118;2023-01-29T07:09:21;100401.88;;;-1.28;74.28
49759;BME280;35654;46.080;11.118;2023-01-29T07:11:48;100384.53;;;-1.26;74.08
49759;BME280;35654;46.080;11.118;2023-01-29T07:14:14;100389.50;;;-1.29;73.99
49759;BME280;35654;46.080;11.118;2023-01-29T07:16:41;100386.03;;;-1.23;73.87
49759;BME280;35654;46.080;11.118;2023-01-29T07:19:07;100389.34;;;-1.21;73.71
49759;BME280;35654;46.080;11.118;2023-01-29T07:21:34;100385.91;;;-1.36;74.54
49759;BME280;35654;46.080;11.118;2023-01-29T07:24:00;100389.50;;;-1.29;74.43
49759;BME280;35654;46.080;11.118;2023-01-29T07:26:27;100390.63;;;-1.17;73.96
49759;BME280;35654;46.080;11.118;2023-01-29T07:28:53;100390.69;;;-1.10;73.46
49759;BME280;35654;46.080;11.118;2023-01-29T07:31:18;100396.13;;;-1.04;73.26
49759;BME280;35654;46.080;11.118;2023-01-29T07:33:44;100400.84;;;-1.06;72.57
49759;BME280;35654;46.080;11.118;2023-01-29T07:36:14;100402.97;;;-1.01;72.53
49759;BME280;35654;46.080;11.118;2023-01-29T07:38:41;100399.03;;;-0.99;72.50
49759;BME280;35654;46.080;11.118;2023-01-29T07:41:10;100412.88;;;-1.02;73.01
49759;BME280;35654;46.080;11.118;2023-01-29T07:43:37;100409.16;;;-1.01;73.30
49759;BME280;35654;46.080;11.118;2023-01-29T07:46:04;100403.88;;;-1.15;72.91
49759;BME280;35654;46.080;11.118;2023-01-29T07:48:31;100410.47;;;-1.18;73.25
49759;BME280;35654;46.080;11.118;2023-01-29T07:50:58;100410.22;;;-1.23;74.31
49759;BME280;35654;46.080;11.118;2023-01-29T07:53:25;100409.09;;;-1.07;73.59
49759;BME280;35654;46.080;11.118;2023-01-29T07:55:52;100410.81;;;-1.00;73.24
49759;BME280;35654;46.080;11.118;2023-01-29T07:58:17;100411.75;;;-0.86;72.81
49759;BME280;35654;46.080;11.118;2023-01-29T08:00:43;100405.81;;;-0.75;71.99
49759;BME280;35654;46.080;11.118;2023-01-29T08:03:15;100411.94;;;-0.88;72.96
49759;BME280;35654;46.080;11.118;2023-01-29T08:05:42;100411.13;;;-0.88;73.45
49759;BME280;35654;46.080;11.118;2023-01-29T08:08:08;100405.19;;;-0.77;73.45
49759;BME280;35654;46.080;11.118;2023-01-29T08:10:34;100409.91;;;-0.51;72.70
49759;BME280;35654;46.080;11.118;2023-01-29T08:13:01;100410.41;;;-0.35;71.41
49759;BME280;35654;46.080;11.118;2023-01-29T08:15:27;100419.38;;;-0.21;70.51
49759;BME280;35654;46.080;11.118;2023-01-29T08:17:53;100420.63;;;-0.24;69.33
49759;BME280;35654;46.080;11.118;2023-01-29T08:20:20;100419.00;;;-0.18;70.06
49759;BME280;35654;46.080;11.118;2023-01-29T08:22:46;100417.59;;;-0.08;69.22
49759;BME280;35654;46.080;11.118;2023-01-29T08:25:13;100415.16;;;0.04;69.65
49759;BME280;35654;46.080;11.118;2023-01-29T08:27:38;100424.31;;;0.23;68.26
49759;BME280;35654;46.080;11.118;2023-01-29T08:30:05;100421.03;;;0.34;67.16
49759;BME280;35654;46.080;11.118;2023-01-29T08:32:31;100427.69;;;0.38;66.23
49759;BME280;35654;46.080;11.118;2023-01-29T08:34:56;100427.06;;;0.42;66.41
49759;BME280;35654;46.080;11.118;2023-01-29T08:37:21;100429.19;;;0.47;66.01
49759;BME280;35654;46.080;11.118;2023-01-29T08:39:47;100438.91;;;0.48;65.76
49759;BME280;35654;46.080;11.118;2023-01-29T08:42:12;100432.94;;;0.66;65.15
49759;BME280;35654;46.080;11.118;2023-01-29T08:44:38;100433.59;;;0.81;64.70
49759;BME280;35654;46.080;11.118;2023-01-29T08:47:03;100434.44;;;0.94;64.09
49759;BME280;35654;46.080;11.118;2023-01-29T08:49:28;100433.16;;;1.10;63.24
49759;BME280;35654;46.080;11.118;2023-01-29T08:51:54;100431.09;;;1.18;62.87
49759;BME280;35654;46.080;11.118;2023-01-29T08:54:22;100424.03;;;1.31;62.08
49759;BME280;35654;46.080;11.118;2023-01-29T08:56:49;100426.91;;;1.49;61.86
49759;BME280;35654;46.080;11.118;2023-01-29T08:59:16;100430.63;;;1.61;61.23
49759;BME280;35654;46.080;11.118;2023-01-29T09:01:43;100420.44;;;1.69;60.73
49759;BME280;35654;46.080;11.118;2023-01-29T09:04:10;100420.22;;;1.71;60.51
49759;BME280;35654;46.080;11.118;2023-01-29T09:06:37;100424.94;;;1.89;59.23
49759;BME280;35654;46.080;11.118;2023-01-29T09:09:03;100421.59;;;1.93;58.13
49759;BME280;35654;46.080;11.118;2023-01-29T09:11:30;100424.88;;;2.08;57.32
49759;BME280;35654;46.080;11.118;2023-01-29T09:13:56;100411.94;;;2.17;55.59
49759;BME280;35654;46.080;11.118;2023-01-29T09:16:23;100413.13;;;2.34;54.89
49759;BME280;35654;46.080;11.118;2023-01-29T09:18:51;100413.72;;;2.36;53.76
49759;BME280;35654;46.080;11.118;2023-01-29T09:21:18;100414.97;;;2.40;53.70
49759;BME280;35654;46.080;11.118;2023-01-29T09:23:44;100414.81;;;2.60;53.60
49759;BME280;35654;46.080;11.118;2023-01-29T09:26:11;100407.63;;;2.78;53.48
49759;BME280;35654;46.080;11.118;2023-01-29T09:28:38;100410.47;;;2.90;52.93
49759;BME280;35654;46.080;11.118;2023-01-29T09:31:04;100402.72;;;2.93;51.58
49759;BME280;35654;46.080;11.118;2023-01-29T09:33:30;100406.69;;;2.91;51.84
49759;BME280;35654;46.080;11.118;2023-01-29T09:35:57;100401.34;;;3.09;51.82
49759;BME280;35654;46.080;11.118;2023-01-29T09:38:23;100411.00;;;3.23;51.02
49759;BME280;35654;46.080;11.118;2023-01-29T09:43:44;100409.56;;;3.45;49.92
49759;BME280;35654;46.080;11.118;2023-01-29T09:49:11;100401.78;;;3.31;48.72
49759;BME280;35654;46.080;11.118;2023-01-29T09:51:46;100397.22;;;3.49;48.69
49759;BME280;35654;46.080;11.118;2023-01-29T09:54:32;100395.56;;;3.67;48.12
49759;BME280;35654;46.080;11.118;2023-01-29T09:57:01;100393.22;;;3.88;47.84
49759;BME280;35654;46.080;11.118;2023-01-29T09:59:30;100398.28;;;4.03;48.03
49759;BME280;35654;46.080;11.118;2023-01-29T10:02:17;100389.63;;;3.94;47.29
49759;BME280;35654;46.080;11.118;2023-01-29T10:13:04;100388.19;;;4.40;46.75
49759;BME280;35654;46.080;11.118;2023-01-29T10:21:51;100375.72;;;5.03;44.93
49759;BME280;35654;46.080;11.118;2023-01-29T10:24:36;100368.91;;;5.12;44.04
49759;BME280;35654;46.080;11.118;2023-01-29T10:27:15;100359.09;;;4.88;44.12
49759;BME280;35654;46.080;11.118;2023-01-29T10:29:43;100351.31;;;5.26;43.62
49759;BME280;35654;46.080;11.118;2023-01-29T10:32:17;100343.63;;;5.47;43.02
49759;BME280;35654;46.080;11.118;2023-01-29T10:34:52;100335.69;;;5.68;41.88
49759;BME280;35654;46.080;11.118;2023-01-29T10:37:40;100333.81;;;6.37;41.17
49759;BME280;35654;46.080;11.118;2023-01-29T10:40:21;100324.66;;;9.20;35.85
49759;BME280;35654;46.080;11.118;2023-01-29T10:45:33;100308.00;;;15.61;25.77
49759;BME280;35654;46.080;11.118;2023-01-29T10:50:52;100292.31;;;16.38;23.39
49759;BME280;35654;46.080;11.118;2023-01-29T11:02:43;100247.69;;;19.44;19.38
49759;BME280;35654;46.080;11.118;2023-01-29T11:05:54;100244.19;;;19.09;19.31
49759;BME280;35654;46.080;11.118;2023-01-29T11:08:24;100234.16;;;19.43;18.71
49759;BME280;35654;46.080;11.118;2023-01-29T11:13:56;100221.06;;;17.55;20.92
49759;BME280;35654;46.080;11.118;2023-01-29T11:16:25;100208.63;;;18.26;19.89
49759;BME280;35654;46.080;11.118;2023-01-29T11:18:52;100211.91;;;16.48;21.59
49759;BME280;35654;46.080;11.118;2023-01-29T11:21:18;100206.19;;;16.45;21.77
49759;BME280;35654;46.080;11.118;2023-01-29T11:23:43;100208.28;;;17.93;20.37
49759;BME280;35654;46.080;11.118;2023-01-29T11:26:12;100200.50;;;18.72;20.09
49759;BME280;35654;46.080;11.118;2023-01-29T11:28:43;100195.59;;;17.53;20.41
49759;BME280;35654;46.080;11.118;2023-01-29T11:34:21;100183.28;;;17.67;20.12
49759;BME280;35654;46.080;11.118;2023-01-29T11:37:04;100182.41;;;16.79;20.65
49759;BME280;35654;46.080;11.118;2023-01-29T11:39:44;100187.22;;;16.52;20.77
49759;BME280;35654;46.080;11.118;2023-01-29T11:42:22;100184.25;;;16.48;21.32
49759;BME280;35654;46.080;11.118;2023-01-29T11:44:49;100183.31;;;18.87;19.57
49759;BME280;35654;46.080;11.118;2023-01-29T11:47:28;100173.50;;;20.77;17.34
49759;BME280;35654;46.080;11.118;2023-01-29T11:50:05;100175.03;;;20.13;18.15
49759;BME280;35654;46.080;11.118;2023-01-29T11:52:38;100164.25;;;21.18;17.03
49759;BME280;35654;46.080;11.118;2023-01-29T11:55:20;100165.91;;;21.43;16.32
49759;BME280;35654;46.080;11.118;2023-01-29T12:00:32;100157.28;;;21.12;16.42
49759;BME280;35654;46.080;11.118;2023-01-29T12:03:21;100149.41;;;21.63;16.59
49759;BME280;35654;46.080;11.118;2023-01-29T12:05:55;100156.25;;;19.31;18.46
49759;BME280;35654;46.080;11.118;2023-01-29T12:08:22;100146.47;;;21.11;16.62
49759;BME280;35654;46.080;11.118;2023-01-29T12:10:48;100140.50;;;21.00;17.25
49759;BME280;35654;46.080;11.118;2023-01-29T12:15:41;100140.94;;;22.51;16.06
49759;BME280;35654;46.080;11.118;2023-01-29T12:21:00;100141.25;;;20.44;17.00
49759;BME280;35654;46.080;11.118;2023-01-29T12:32:10;100104.25;;;22.09;15.94
49759;BME280;35654;46.080;11.118;2023-01-29T12:34:52;100095.72;;;21.05;16.42
49759;BME280;35654;46.080;11.118;2023-01-29T12:40:27;100090.03;;;19.70;18.06
49759;BME280;35654;46.080;11.118;2023-01-29T12:42:59;100084.56;;;21.78;16.16
49759;BME280;35654;46.080;11.118;2023-01-29T12:45:29;100073.69;;;21.00;16.62
49759;BME280;35654;46.080;11.118;2023-01-29T12:48:05;100074.09;;;20.00;17.40
49759;BME280;35654;46.080;11.118;2023-01-29T12:50:34;100073.41;;;19.33;18.13
49759;BME280;35654;46.080;11.118;2023-01-29T12:53:14;100083.03;;;20.26;17.31
49759;BME280;35654;46.080;11.118;2023-01-29T12:55:50;100062.38;;;21.93;15.83
49759;BME280;35654;46.080;11.118;2023-01-29T12:58:40;100057.78;;;20.11;16.98
49759;BME280;35654;46.080;11.118;2023-01-29T13:01:30;100048.31;;;20.12;17.02
49759;BME280;35654;46.080;11.118;2023-01-29T13:04:10;100051.66;;;19.35;17.64
49759;BME280;35654;46.080;11.118;2023-01-29T13:06:45;100044.13;;;19.85;17.67
49759;BME280;35654;46.080;11.118;2023-01-29T13:09:25;100035.78;;;21.20;16.84
49759;BME280;35654;46.080;11.118;2023-01-29T13:12:02;100028.31;;;20.75;16.83
49759;BME280;35654;46.080;11.118;2023-01-29T13:14:47;100031.31;;;19.72;17.64
49759;BME280;35654;46.080;11.118;2023-01-29T13:20:02;100020.69;;;22.13;15.74
49759;BME280;35654;46.080;11.118;2023-01-29T13:22:34;100023.59;;;20.31;16.97
49759;BME280;35654;46.080;11.118;2023-01-29T13:25:04;100010.19;;;21.54;16.40
49759;BME280;35654;46.080;11.118;2023-01-29T13:27:32;100021.56;;;19.66;17.58
49759;BME280;35654;46.080;11.118;2023-01-29T13:30:00;100012.28;;;18.36;18.72
49759;BME280;35654;46.080;11.118;2023-01-29T13:32:29;100005.69;;;17.94;19.27
49759;BME280;35654;46.080;11.118;2023-01-29T13:35:05;100007.34;;;18.59;18.74
49759;BME280;35654;46.080;11.118;2023-01-29T13:37:47;100009.59;;;19.53;17.99
49759;BME280;35654;46.080;11.118;2023-01-29T13:40:24;100005.94;;;18.27;19.06
49759;BME280;35654;46.080;11.118;2023-01-29T13:42:52;99996.41;;;19.83;17.59
49759;BME280;35654;46.080;11.118;2023-01-29T13:45:33;99989.91;;;22.09;16.03
49759;BME280;35654;46.080;11.118;2023-01-29T13:50:47;99990.91;;;23.26;14.72
49759;BME280;35654;46.080;11.118;2023-01-29T13:53:39;99990.13;;;23.10;15.09
49759;BME280;35654;46.080;11.118;2023-01-29T13:59:03;99985.47;;;23.49;14.95
49759;BME280;35654;46.080;11.118;2023-01-29T14:04:24;99987.50;;;20.91;16.62
49759;BME280;35654;46.080;11.118;2023-01-29T14:07:00;99989.59;;;21.19;16.75
49759;BME280;35654;46.080;11.118;2023-01-29T14:12:52;99990.28;;;20.91;16.91
49759;BME280;35654;46.080;11.118;2023-01-29T14:15:13;99991.72;;;20.28;17.48
49759;BME280;35654;46.080;11.118;2023-01-29T14:23:07;99994.56;;;18.96;18.86
49759;BME280;35654;46.080;11.118;2023-01-29T14:25:45;99984.66;;;19.15;18.76
49759;BME280;35654;46.080;11.118;2023-01-29T14:28:21;99993.50;;;19.80;18.12
49759;BME280;35654;46.080;11.118;2023-01-29T14:30:49;99995.06;;;18.69;19.48
49759;BME280;35654;46.080;11.118;2023-01-29T14:33:39;99988.09;;;18.54;19.23
49759;BME280;35654;46.080;11.118;2023-01-29T14:36:12;99988.50;;;18.27;19.83
49759;BME280;35654;46.080;11.118;2023-01-29T14:38:45;99979.53;;;16.84;21.16
49759;BME280;35654;46.080;11.118;2023-01-29T14:41:32;99982.44;;;14.93;23.35
49759;BME280;35654;46.080;11.118;2023-01-29T14:47:03;99983.09;;;12.30;27.25
49759;BME280;35654;46.080;11.118;2023-01-29T14:49:54;99974.84;;;11.73;28.23
49759;BME280;35654;46.080;11.118;2023-01-29T14:52:43;99981.59;;;11.13;28.99
49759;BME280;35654;46.080;11.118;2023-01-29T14:55:37;99976.94;;;10.59;29.95
49759;BME280;35654;46.080;11.118;2023-01-29T14:58:05;99982.22;;;10.30;30.45
49759;BME280;35654;46.080;11.118;2023-01-29T15:00:42;99988.31;;;9.87;31.71
49759;BME280;35654;46.080;11.118;2023-01-29T15:03:21;99983.13;;;9.80;31.89
49759;BME280;35654;46.080;11.118;2023-01-29T15:05:54;99980.13;;;9.82;31.60
49759;BME280;35654;46.080;11.118;2023-01-29T15:08:34;99986.69;;;9.76;31.92
49759;BME280;35654;46.080;11.118;2023-01-29T15:11:07;99986.41;;;9.62;32.05
49759;BME280;35654;46.080;11.118;2023-01-29T15:14:16;99986.13;;;9.28;32.79
49759;BME280;35654;46.080;11.118;2023-01-29T15:17:21;99998.13;;;9.17;32.93
49759;BME280;35654;46.080;11.118;2023-01-29T15:19:49;99999.22;;;9.16;33.14
49759;BME280;35654;46.080;11.118;2023-01-29T15:22:19;99997.00;;;9.03;33.58
49759;BME280;35654;46.080;11.118;2023-01-29T15:25:05;99996.41;;;8.96;34.28
49759;BME280;35654;46.080;11.118;2023-01-29T15:27:33;99994.72;;;8.75;34.57
49759;BME280;35654;46.080;11.118;2023-01-29T15:30:02;99993.56;;;8.61;35.28
49759;BME280;35654;46.080;11.118;2023-01-29T15:32:36;99986.66;;;8.38;36.14